Time;durP1;ratioP1;P1;durP2;ratioP2;P2;SDS_P1;SDS_P2;PMS_P1;PMS_P2;Temp;Humidity;BMP_temperature;BMP_pressure;BME280_temperature;BME280_humidity;BME280_pressure;Samples;Min_cycle;Max_cycle;Signal;HPM_P1;HPM_P2
2024/01/27 00:00:08;;;;;;;816.10;751.15;;;3.70;99.90;;;;;;4992611;28;20046;-77
2024/01/27 00:02:34;;;;;;;846.92;777.63;;;3.70;99.90;;;;;;4991895;28;20418;-77
2024/01/27 00:05:00;;;;;;;773.50;712.70;;;3.80;99.90;;;;;;5004137;28;20042;-77
2024/01/27 00:07:27;;;;;;;769.10;708.90;;;3.50;99.90;;;;;;5004933;28;20056;-77
2024/01/27 00:09:52;;;;;;;858.50;788.38;;;3.40;99.90;;;;;;5022698;28;20125;-77
2024/01/27 00:12:18;;;;;;;870.70;798.92;;;3.60;99.90;;;;;;4999465;28;20134;-76
2024/01/27 00:14:44;;;;;;;874.22;799.95;;;3.40;99.90;;;;;;5003339;28;20050;-77
2024/01/27 00:17:10;;;;;;;806.88;741.70;;;3.40;99.90;;;;;;5003660;28;20087;-77
2024/01/27 00:19:36;;;;;;;853.40;783.47;;;3.40;99.90;;;;;;4990808;28;20131;-77
2024/01/27 00:22:02;;;;;;;978.47;889.15;;;3.40;99.90;;;;;;5004773;28;20042;-77
2024/01/27 00:24:28;;;;;;;931.65;851.60;;;3.70;99.90;;;;;;5001436;28;20497;-77
2024/01/27 00:26:54;;;;;;;851.50;782.17;;;4.00;99.90;;;;;;5002870;28;20067;-76
2024/01/27 00:29:20;;;;;;;826.53;759.83;;;3.70;99.90;;;;;;4996417;28;20096;-77
2024/01/27 00:31:45;;;;;;;851.88;783.10;;;3.60;99.90;;;;;;4985479;28;20469;-77
2024/01/27 00:34:11;;;;;;;789.45;727.67;;;3.70;99.90;;;;;;4984461;28;20683;-77
2024/01/27 00:36:37;;;;;;;859.47;789.72;;;3.80;99.90;;;;;;4984930;28;20052;-77
2024/01/27 00:39:03;;;;;;;772.80;712.72;;;3.60;99.90;;;;;;4983819;28;20156;-77
2024/01/27 00:41:29;;;;;;;857.53;787.90;;;3.50;99.90;;;;;;4986593;28;20129;-77
2024/01/27 00:43:55;;;;;;;823.05;757.45;;;3.90;99.90;;;;;;4986376;28;20162;-77
2024/01/27 00:46:21;;;;;;;785.58;724.13;;;3.30;99.90;;;;;;4985123;28;20046;-77
2024/01/27 00:48:46;;;;;;;793.35;731.42;;;3.50;99.90;;;;;;5018025;28;20129;-77
2024/01/27 00:51:13;;;;;;;928.72;849.70;;;3.60;99.90;;;;;;4986466;28;20042;-77
2024/01/27 00:53:39;;;;;;;878.88;805.42;;;3.20;99.90;;;;;;4984878;28;20129;-77
2024/01/27 00:56:05;;;;;;;982.22;892.55;;;3.70;99.90;;;;;;4985707;28;20050;-77
2024/01/27 00:58:31;;;;;;;868.60;797.22;;;3.20;99.90;;;;;;4986893;28;20042;-77
2024/01/27 01:00:58;;;;;;;807.97;743.30;;;3.30;99.90;;;;;;4996134;28;20045;-77
2024/01/27 01:03:24;;;;;;;823.38;757.95;;;3.30;99.90;;;;;;4998252;28;20042;-77
2024/01/27 01:05:50;;;;;;;847.83;778.22;;;3.40;99.90;;;;;;4995498;28;20564;-77
2024/01/27 01:08:16;;;;;;;826.72;760.15;;;3.30;99.90;;;;;;4984001;28;20069;-77
2024/01/27 01:10:41;;;;;;;898.13;823.53;;;3.40;99.90;;;;;;4987428;28;20053;-77
2024/01/27 01:13:07;;;;;;;855.58;787.30;;;3.40;99.90;;;;;;4990631;28;20034;-77
2024/01/27 01:15:33;;;;;;;810.22;745.38;;;3.40;99.90;;;;;;5026910;28;20052;-77
2024/01/27 01:17:59;;;;;;;800.55;736.10;;;3.40;99.90;;;;;;5006477;28;20048;-77
2024/01/27 01:20:26;;;;;;;882.10;809.60;;;3.40;99.90;;;;;;5002225;28;20481;-77
2024/01/27 01:22:52;;;;;;;905.67;829.20;;;3.40;99.90;;;;;;4990508;28;20493;-77
2024/01/27 01:25:18;;;;;;;816.53;751.38;;;3.40;99.90;;;;;;5001959;28;20045;-77
2024/01/27 01:27:45;;;;;;;833.65;765.88;;;3.40;99.90;;;;;;5003084;28;20050;-77
2024/01/27 01:30:11;;;;;;;859.03;788.83;;;3.40;99.90;;;;;;5028196;28;20054;-77
2024/01/27 01:32:37;;;;;;;825.83;758.53;;;3.40;99.90;;;;;;5035364;28;20068;-77
2024/01/27 01:35:03;;;;;;;837.95;771.30;;;3.40;99.90;;;;;;5001614;28;20046;-77
2024/01/27 01:37:29;;;;;;;783.75;722.63;;;3.40;99.90;;;;;;4995331;28;20414;-77
2024/01/27 01:39:56;;;;;;;808.05;744.55;;;3.40;99.90;;;;;;4983909;28;20074;-77
2024/01/27 01:42:24;;;;;;;821.63;755.05;;;3.40;99.90;;;;;;4986362;28;20450;-77
2024/01/27 01:44:51;;;;;;;876.80;803.50;;;3.60;99.90;;;;;;4971312;28;20046;-77
2024/01/27 01:47:16;;;;;;;878.25;804.50;;;3.40;99.90;;;;;;4986536;28;20103;-77
2024/01/27 01:49:42;;;;;;;806.40;742.33;;;3.40;99.90;;;;;;4987552;28;20042;-77
2024/01/27 01:52:08;;;;;;;967.67;876.20;;;3.40;99.90;;;;;;4987261;28;20078;-77
2024/01/27 01:54:34;;;;;;;803.10;736.97;;;3.40;99.90;;;;;;4987541;28;20054;-77
2024/01/27 01:57:00;;;;;;;796.20;732.45;;;3.50;99.90;;;;;;5018785;28;20104;-77
2024/01/27 01:59:26;;;;;;;820.60;755.75;;;3.50;99.90;;;;;;4986840;28;20050;-77
2024/01/27 02:01:51;;;;;;;784.80;724.15;;;3.40;99.90;;;;;;5019270;28;20050;-77
2024/01/27 02:04:17;;;;;;;774.55;713.60;;;3.40;99.90;;;;;;4987726;28;20517;-77
2024/01/27 02:06:43;;;;;;;816.97;752.50;;;3.70;99.90;;;;;;4967197;28;20130;-77
2024/01/27 02:09:09;;;;;;;820.47;755.00;;;3.30;99.90;;;;;;4982459;28;20050;-77
2024/01/27 02:11:35;;;;;;;931.33;849.95;;;3.30;99.90;;;;;;4985371;28;20131;-77
2024/01/27 02:14:01;;;;;;;864.35;793.10;;;3.30;99.90;;;;;;4969439;28;20056;-77
2024/01/27 02:16:27;;;;;;;850.67;781.53;;;3.30;99.90;;;;;;4986051;28;20045;-77
2024/01/27 02:18:52;;;;;;;770.72;711.05;;;3.20;99.90;;;;;;4987404;28;20054;-77
2024/01/27 02:21:18;;;;;;;816.83;751.97;;;3.20;99.90;;;;;;4986850;28;20046;-77
2024/01/27 02:23:43;;;;;;;840.97;773.00;;;3.60;99.90;;;;;;4969429;28;20069;-77
2024/01/27 02:26:09;;;;;;;799.22;736.13;;;3.10;99.90;;;;;;4987736;28;20458;-77
2024/01/27 02:28:35;;;;;;;840.42;772.38;;;3.00;99.90;;;;;;4989282;28;20095;-77
2024/01/27 02:31:01;;;;;;;912.05;834.88;;;2.90;99.90;;;;;;4986844;28;20085;-77
2024/01/27 02:33:26;;;;;;;850.92;782.38;;;3.30;99.90;;;;;;4988651;28;20073;-77
2024/01/27 02:35:52;;;;;;;845.08;776.85;;;3.30;99.90;;;;;;4987594;28;20043;-77
2024/01/27 02:38:18;;;;;;;814.17;749.35;;;3.20;99.90;;;;;;4989722;28;20053;-77
2024/01/27 02:40:43;;;;;;;882.67;811.40;;;3.00;99.90;;;;;;4987757;28;20050;-77
2024/01/27 02:43:09;;;;;;;802.55;739.10;;;3.00;99.90;;;;;;4988612;28;20073;-77
2024/01/27 02:45:35;;;;;;;799.00;735.55;;;2.70;99.90;;;;;;4986431;28;20438;-77
2024/01/27 02:48:01;;;;;;;783.45;722.10;;;2.90;99.90;;;;;;4988075;28;20058;-77
2024/01/27 02:50:27;;;;;;;859.88;789.80;;;2.70;99.90;;;;;;4988932;28;20078;-77
2024/01/27 02:52:53;;;;;;;823.10;756.25;;;3.00;99.90;;;;;;4987650;28;20050;-77
2024/01/27 02:55:18;;;;;;;804.40;742.03;;;2.90;99.90;;;;;;4986960;28;20603;-77
2024/01/27 02:57:44;;;;;;;856.30;787.22;;;3.40;99.90;;;;;;4988026;28;20054;-77
2024/01/27 03:00:10;;;;;;;848.05;780.15;;;2.60;99.90;;;;;;4984716;28;20046;-77
2024/01/27 03:02:36;;;;;;;823.72;758.13;;;2.60;99.90;;;;;;4987378;28;20049;-77
2024/01/27 03:05:02;;;;;;;957.97;874.40;;;2.60;99.90;;;;;;4986054;28;20042;-77
2024/01/27 03:07:27;;;;;;;844.70;777.25;;;2.50;99.90;;;;;;4973862;28;20049;-76
2024/01/27 03:09:53;;;;;;;830.80;764.50;;;2.90;99.90;;;;;;4986106;28;20061;-77
2024/01/27 03:12:19;;;;;;;840.35;771.85;;;3.10;99.90;;;;;;4984371;28;20051;-77
2024/01/27 03:14:46;;;;;;;851.47;782.08;;;2.60;99.90;;;;;;4985587;28;20423;-77
2024/01/27 03:17:11;;;;;;;868.45;796.17;;;2.70;99.90;;;;;;4986415;28;20050;-77
2024/01/27 03:19:37;;;;;;;853.47;783.72;;;2.70;99.90;;;;;;5017457;28;20848;-77
2024/01/27 03:22:03;;;;;;;838.83;772.80;;;3.00;99.90;;;;;;4985678;28;20069;-77
2024/01/27 03:24:29;;;;;;;892.13;817.35;;;2.80;99.90;;;;;;4986606;28;20160;-77
2024/01/27 03:26:54;;;;;;;865.17;794.35;;;3.60;99.90;;;;;;4985859;28;20394;-77
2024/01/27 03:29:20;;;;;;;812.10;747.63;;;3.10;99.90;;;;;;4966199;28;20047;-77
2024/01/27 03:31:46;;;;;;;865.53;794.55;;;3.10;99.90;;;;;;4978856;28;20047;-77
2024/01/27 03:34:11;;;;;;;806.50;743.25;;;2.70;99.90;;;;;;4984782;28;20038;-77
2024/01/27 03:36:37;;;;;;;817.95;754.40;;;3.30;99.90;;;;;;4986309;28;20051;-76
2024/01/27 03:39:03;;;;;;;812.45;748.05;;;3.10;99.90;;;;;;4987235;28;20573;-77
2024/01/27 03:41:29;;;;;;;773.40;713.08;;;3.50;99.90;;;;;;4983843;28;20178;-77
2024/01/27 03:43:55;;;;;;;822.05;757.92;;;2.90;99.90;;;;;;4984662;28;20089;-77
2024/01/27 03:46:20;;;;;;;847.53;779.88;;;3.20;99.90;;;;;;4986487;28;20454;-77
2024/01/27 03:48:46;;;;;;;867.40;796.75;;;3.30;99.90;;;;;;4983866;28;20054;-77
2024/01/27 03:51:12;;;;;;;883.05;810.22;;;3.00;99.90;;;;;;4984924;28;20053;-77
2024/01/27 03:53:38;;;;;;;909.05;833.00;;;2.80;99.90;;;;;;4986251;28;20047;-77
2024/01/27 03:56:04;;;;;;;808.65;745.45;;;3.50;99.90;;;;;;4984412;28;20054;-77
2024/01/27 03:58:30;;;;;;;837.85;770.55;;;2.70;99.90;;;;;;4985822;28;20049;-77
2024/01/27 04:00:57;;;;;;;806.88;744.20;;;2.70;99.90;;;;;;4998767;28;20099;-77
2024/01/27 04:03:23;;;;;;;811.05;747.67;;;3.30;99.90;;;;;;5002626;28;20481;-77
2024/01/27 04:05:49;;;;;;;913.53;835.40;;;2.70;99.90;;;;;;5003337;28;20175;-77
2024/01/27 04:08:14;;;;;;;809.90;746.67;;;2.80;99.90;;;;;;5043064;28;20069;-77
2024/01/27 04:10:40;;;;;;;814.72;750.67;;;2.90;99.90;;;;;;5002818;28;20195;-77
2024/01/27 04:13:06;;;;;;;858.47;789.30;;;2.70;99.90;;;;;;5022574;28;20053;-77
2024/01/27 04:15:41;;;;;;;868.55;797.67;;;2.80;99.90;;;;;;5003365;28;20065;-77
2024/01/27 04:18:08;;;;;;;933.08;852.88;;;3.20;99.90;;;;;;4992000;28;20050;-77
2024/01/27 04:20:34;;;;;;;832.38;765.85;;;2.80;99.90;;;;;;5003443;28;20054;-77
2024/01/27 04:23:00;;;;;;;803.92;740.95;;;2.90;99.90;;;;;;5002619;28;20489;-77
2024/01/27 04:25:26;;;;;;;832.42;766.17;;;2.90;99.90;;;;;;5003227;28;20053;-76
2024/01/27 04:27:52;;;;;;;842.97;774.42;;;3.70;99.90;;;;;;4996578;28;20058;-77
2024/01/27 04:30:18;;;;;;;885.15;813.25;;;2.80;99.90;;;;;;4984321;28;20054;-77
2024/01/27 04:32:44;;;;;;;914.00;836.83;;;2.80;99.90;;;;;;4995128;28;20061;-77
2024/01/27 04:35:11;;;;;;;854.67;785.53;;;2.90;99.90;;;;;;5016671;28;20034;-77
2024/01/27 04:37:37;;;;;;;833.28;766.92;;;2.70;99.90;;;;;;4984030;28;20046;-77
2024/01/27 04:40:05;;;;;;;843.75;776.00;;;3.20;99.90;;;;;;4985943;28;20122;-77
2024/01/27 04:42:34;;;;;;;812.50;748.47;;;2.60;99.90;;;;;;4983884;28;20529;-77
2024/01/27 04:44:59;;;;;;;855.28;785.28;;;3.10;99.90;;;;;;4986711;28;20063;-77
2024/01/27 04:47:25;;;;;;;802.63;739.33;;;2.80;99.90;;;;;;4984544;28;20514;-77
2024/01/27 04:49:51;;;;;;;780.22;719.00;;;2.70;99.90;;;;;;4987027;28;20387;-77
2024/01/27 04:52:17;;;;;;;867.80;797.60;;;3.00;99.90;;;;;;4985022;28;20470;-77
2024/01/27 04:54:43;;;;;;;829.50;762.65;;;2.40;99.90;;;;;;4986191;28;20046;-77
2024/01/27 04:57:09;;;;;;;809.75;745.65;;;3.00;99.90;;;;;;4983406;28;20482;-77
2024/01/27 04:59:35;;;;;;;882.38;809.85;;;2.50;99.90;;;;;;4985452;28;20054;-77
2024/01/27 05:02:01;;;;;;;892.83;818.72;;;2.70;99.90;;;;;;4994776;28;20133;-77
2024/01/27 05:04:27;;;;;;;883.55;810.42;;;2.40;99.90;;;;;;4999276;28;20125;-77
2024/01/27 05:06:53;;;;;;;860.08;790.80;;;2.50;99.90;;;;;;4987033;28;20486;-77
2024/01/27 05:09:18;;;;;;;829.05;763.08;;;2.50;99.90;;;;;;4995531;28;20065;-77
2024/01/27 05:11:45;;;;;;;786.15;725.00;;;3.30;99.90;;;;;;5002208;28;20038;-77
2024/01/27 05:14:11;;;;;;;855.88;785.85;;;2.70;99.90;;;;;;5003645;28;20054;-77
2024/01/27 05:16:37;;;;;;;830.13;763.33;;;2.40;99.90;;;;;;5005107;28;20045;-77
2024/01/27 05:19:03;;;;;;;866.78;796.03;;;2.90;99.90;;;;;;5006126;28;20096;-77
2024/01/27 05:21:28;;;;;;;811.75;747.45;;;2.40;99.90;;;;;;5039570;28;20549;-77
2024/01/27 05:23:54;;;;;;;807.13;743.65;;;2.50;99.90;;;;;;5003773;28;20129;-77
2024/01/27 05:26:21;;;;;;;871.90;801.35;;;2.30;99.90;;;;;;4988610;28;20394;-77
2024/01/27 05:28:47;;;;;;;877.63;805.35;;;2.40;99.90;;;;;;4985996;28;20054;-77
2024/01/27 05:31:12;;;;;;;883.50;810.58;;;2.80;99.90;;;;;;4997596;28;20057;-77
2024/01/27 05:33:39;;;;;;;933.22;852.85;;;2.30;99.90;;;;;;4990865;28;20054;-77
2024/01/27 05:36:05;;;;;;;865.65;795.60;;;2.40;99.90;;;;;;4987286;28;20050;-77
2024/01/27 05:38:31;;;;;;;807.53;742.72;;;2.30;99.90;;;;;;4988386;28;20460;-77
2024/01/27 05:41:04;;;;;;;848.03;780.17;;;2.30;99.90;;;;;;4996690;28;20042;-77
2024/01/27 05:43:30;;;;;;;830.70;765.28;;;2.30;99.90;;;;;;5006537;28;20042;-77
2024/01/27 05:45:56;;;;;;;821.72;757.47;;;2.50;99.90;;;;;;5005321;28;20762;-77
2024/01/27 05:48:22;;;;;;;794.45;732.67;;;2.90;99.90;;;;;;5005372;28;20045;-77
2024/01/27 05:50:58;;;;;;;815.55;750.97;;;2.30;99.90;;;;;;5005952;28;20549;-77
2024/01/27 05:53:24;;;;;;;813.33;749.22;;;2.30;99.90;;;;;;5006589;28;20439;-76
2024/01/27 05:55:50;;;;;;;891.47;818.72;;;2.20;99.90;;;;;;5000779;28;20049;-77
2024/01/27 05:58:16;;;;;;;837.40;771.20;;;2.40;99.90;;;;;;4987493;28;20043;-77
2024/01/27 06:00:44;;;;;;;833.28;767.63;;;2.90;99.90;;;;;;4997428;28;20046;-76
2024/01/27 06:03:10;;;;;;;845.72;777.90;;;2.30;99.90;;;;;;5005857;28;20042;-76
2024/01/27 06:05:36;;;;;;;842.70;775.53;;;2.20;99.90;;;;;;5006038;28;20083;-77
2024/01/27 06:08:02;;;;;;;872.17;800.95;;;2.20;99.90;;;;;;4974851;28;20050;-77
2024/01/27 06:10:28;;;;;;;854.40;785.25;;;2.20;99.90;;;;;;4998882;28;20038;-77
2024/01/27 06:12:53;;;;;;;797.35;735.63;;;2.20;99.90;;;;;;5003576;28;20116;-77
2024/01/27 06:15:19;;;;;;;806.67;744.33;;;2.70;99.90;;;;;;5004899;28;20046;-77
2024/01/27 06:17:45;;;;;;;894.88;821.08;;;2.50;99.90;;;;;;5003101;28;20160;-77
2024/01/27 06:20:11;;;;;;;891.72;819.80;;;2.20;99.90;;;;;;4999474;28;20486;-77
2024/01/27 06:22:37;;;;;;;828.38;763.47;;;2.20;99.90;;;;;;5005763;28;20050;-77
2024/01/27 06:25:02;;;;;;;890.33;816.65;;;2.20;99.90;;;;;;5007010;28;20469;-77
2024/01/27 06:27:28;;;;;;;808.65;745.08;;;2.20;99.90;;;;;;5003239;28;20045;-77
2024/01/27 06:29:54;;;;;;;800.25;736.70;;;2.10;99.90;;;;;;5005639;28;20417;-77
2024/01/27 06:32:20;;;;;;;886.92;814.58;;;2.10;99.90;;;;;;5004526;28;20045;-76
2024/01/27 06:34:45;;;;;;;963.28;878.17;;;2.10;99.90;;;;;;5006847;28;20057;-77
2024/01/27 06:37:11;;;;;;;1023.08;924.97;;;2.20;99.90;;;;;;4982178;28;20117;-76
2024/01/27 06:39:37;;;;;;;946.30;861.65;;;2.20;99.90;;;;;;4971737;28;20058;-77
2024/01/27 06:42:02;;;;;;;959.15;874.90;;;2.10;99.90;;;;;;4972512;28;20554;-77
2024/01/27 06:44:28;;;;;;;951.53;869.63;;;2.10;99.90;;;;;;4984398;28;20046;-77
2024/01/27 06:46:54;;;;;;;1054.55;952.40;;;2.20;99.90;;;;;;4970494;28;20508;-76
2024/01/27 06:49:20;;;;;;;895.95;822.17;;;2.30;99.90;;;;;;4984518;28;20051;-77
2024/01/27 06:51:45;;;;;;;858.70;788.78;;;2.10;99.90;;;;;;4995037;28;20485;-77
2024/01/27 06:54:11;;;;;;;873.45;801.95;;;2.10;99.90;;;;;;5021868;28;20409;-77
2024/01/27 06:56:38;;;;;;;985.17;896.03;;;2.10;99.90;;;;;;5016136;28;20050;-77
2024/01/27 06:59:04;;;;;;;961.35;876.97;;;2.20;99.90;;;;;;4981963;28;20050;-76
2024/01/27 07:01:29;;;;;;;888.05;815.35;;;2.50;99.90;;;;;;5003236;28;20121;-77
2024/01/27 07:03:55;;;;;;;1030.07;934.00;;;2.20;99.90;;;;;;5004234;28;20049;-77
2024/01/27 07:06:21;;;;;;;966.83;882.55;;;3.10;99.90;;;;;;4998323;28;20080;-77
2024/01/27 07:08:46;;;;;;;885.40;813.15;;;2.10;99.90;;;;;;4998327;28;20470;-76
2024/01/27 07:11:12;;;;;;;899.38;824.25;;;2.50;99.90;;;;;;5009707;28;20058;-77
2024/01/27 07:13:38;;;;;;;826.72;761.67;;;2.20;99.90;;;;;;5003447;28;20453;-77
2024/01/27 07:16:05;;;;;;;805.65;741.80;;;2.70;99.90;;;;;;5008676;28;20058;-77
2024/01/27 07:18:30;;;;;;;812.05;747.30;;;2.20;99.90;;;;;;4984054;28;20125;-77
2024/01/27 07:20:59;;;;;;;881.78;809.17;;;2.70;99.90;;;;;;4986184;28;20121;-76
2024/01/27 07:23:24;;;;;;;818.08;754.72;;;2.20;99.90;;;;;;4993784;28;20536;-77
2024/01/27 07:25:50;;;;;;;837.95;771.97;;;2.30;99.90;;;;;;4986248;28;20034;-77
2024/01/27 07:28:18;;;;;;;790.15;729.05;;;2.20;99.90;;;;;;4990166;28;20049;-77
2024/01/27 07:30:44;;;;;;;788.35;726.67;;;2.40;99.90;;;;;;4996431;28;20050;-78
2024/01/27 07:33:10;;;;;;;802.17;739.08;;;2.40;99.90;;;;;;4998046;28;20374;-78
2024/01/27 07:35:36;;;;;;;807.38;744.42;;;2.50;99.90;;;;;;4997812;28;20600;-78
2024/01/27 07:38:01;;;;;;;791.72;729.75;;;2.70;99.90;;;;;;4997305;28;20038;-78
2024/01/27 07:40:27;;;;;;;809.75;746.50;;;2.20;99.90;;;;;;4995440;28;20042;-78
2024/01/27 07:42:54;;;;;;;827.38;761.92;;;2.60;99.90;;;;;;4995899;28;20347;-78
2024/01/27 07:45:19;;;;;;;875.47;803.92;;;2.10;99.90;;;;;;4985678;28;20494;-78
2024/01/27 07:47:45;;;;;;;846.00;779.20;;;2.70;99.90;;;;;;4970831;28;20047;-78
2024/01/27 07:50:11;;;;;;;863.63;794.20;;;2.80;99.90;;;;;;4979480;28;20505;-78
2024/01/27 07:52:36;;;;;;;841.17;773.42;;;2.10;99.90;;;;;;4987396;28;20046;-78
2024/01/27 07:55:02;;;;;;;787.92;726.47;;;2.10;99.90;;;;;;4991406;28;20049;-78
2024/01/27 07:57:28;;;;;;;795.55;732.67;;;2.00;99.90;;;;;;4986357;28;20081;-78
2024/01/27 07:59:54;;;;;;;922.85;844.63;;;2.10;99.90;;;;;;4979185;28;20090;-78
2024/01/27 08:02:20;;;;;;;860.38;789.58;;;2.10;99.90;;;;;;4976502;28;20187;-77
2024/01/27 08:04:45;;;;;;;834.25;766.67;;;2.50;99.90;;;;;;4987086;28;20505;-78
2024/01/27 08:07:11;;;;;;;837.22;770.25;;;2.70;99.90;;;;;;5003429;28;20102;-77
2024/01/27 08:09:38;;;;;;;854.53;784.83;;;2.10;99.90;;;;;;4989596;28;20401;-77
2024/01/27 08:12:04;;;;;;;863.58;793.40;;;2.20;99.90;;;;;;4978913;28;20445;-77
2024/01/27 08:14:30;;;;;;;847.28;778.50;;;2.30;99.90;;;;;;4986707;28;20489;-78
2024/01/27 08:16:56;;;;;;;832.78;764.75;;;2.70;99.90;;;;;;4988907;28;20038;-77
2024/01/27 08:19:23;;;;;;;828.33;763.15;;;2.40;99.90;;;;;;4987209;28;20069;-76
2024/01/27 08:21:49;;;;;;;877.42;804.67;;;2.80;99.90;;;;;;4985285;28;20086;-76
2024/01/27 08:24:15;;;;;;;924.13;844.55;;;2.30;99.90;;;;;;4986008;28;20524;-76
2024/01/27 08:26:42;;;;;;;819.92;754.97;;;2.50;99.90;;;;;;4974772;28;20055;-76
2024/01/27 08:29:09;;;;;;;823.92;758.05;;;2.50;99.90;;;;;;4985553;28;20099;-76
2024/01/27 08:31:35;;;;;;;865.92;795.55;;;2.60;99.90;;;;;;4999502;28;20467;-76
2024/01/27 08:34:01;;;;;;;831.83;766.20;;;2.60;99.90;;;;;;4996239;28;20124;-76
2024/01/27 08:36:26;;;;;;;808.38;743.35;;;2.60;99.90;;;;;;4992718;28;20054;-76
2024/01/27 08:38:52;;;;;;;852.75;784.97;;;2.70;99.90;;;;;;4994781;28;20459;-76
2024/01/27 08:41:18;;;;;;;834.72;768.30;;;3.20;99.90;;;;;;4991474;28;20078;-76
2024/01/27 08:43:44;;;;;;;827.13;760.00;;;3.20;99.90;;;;;;4991923;28;20128;-76
2024/01/27 08:46:11;;;;;;;853.25;784.58;;;3.60;99.90;;;;;;4988527;28;20077;-76
2024/01/27 08:48:38;;;;;;;823.17;757.83;;;3.10;99.90;;;;;;4967625;28;20444;-76
2024/01/27 08:51:04;;;;;;;864.35;795.35;;;3.00;99.90;;;;;;4979972;28;20038;-77
2024/01/27 08:53:30;;;;;;;834.72;768.08;;;3.00;99.90;;;;;;4991717;28;20049;-77
2024/01/27 08:55:55;;;;;;;843.88;776.65;;;3.30;99.90;;;;;;4987832;28;20100;-76
2024/01/27 08:58:21;;;;;;;786.83;725.63;;;3.10;99.90;;;;;;4985727;28;20521;-77
2024/01/27 09:00:47;;;;;;;776.60;715.60;;;3.50;99.90;;;;;;4990700;28;20065;-77
2024/01/27 09:03:14;;;;;;;789.05;727.20;;;3.20;99.90;;;;;;4998070;28;20485;-76
2024/01/27 09:05:43;;;;;;;776.60;715.67;;;3.20;99.90;;;;;;4998795;28;20385;-76
2024/01/27 09:08:09;;;;;;;799.90;738.22;;;3.20;99.90;;;;;;4998432;28;20377;-76
2024/01/27 09:10:35;;;;;;;829.38;762.40;;;3.20;99.90;;;;;;4988365;28;20050;-76
2024/01/27 09:13:00;;;;;;;807.38;744.25;;;3.30;99.90;;;;;;5023795;28;20046;-76
2024/01/27 09:15:26;;;;;;;832.70;765.08;;;3.50;99.90;;;;;;4991135;28;20125;-76
2024/01/27 09:17:52;;;;;;;927.75;844.40;;;3.40;99.90;;;;;;5000387;28;20467;-76
2024/01/27 09:20:17;;;;;;;796.75;734.65;;;3.40;99.90;;;;;;4986531;28;20050;-76
2024/01/27 09:22:44;;;;;;;822.53;755.20;;;3.50;99.90;;;;;;4981192;28;20088;-76
2024/01/27 09:25:10;;;;;;;807.65;745.22;;;3.70;99.90;;;;;;4997420;28;20054;-76
2024/01/27 09:27:36;;;;;;;800.35;736.85;;;3.60;99.90;;;;;;4966539;28;20081;-76
2024/01/27 09:30:03;;;;;;;812.50;748.22;;;3.70;99.90;;;;;;4929443;28;1087464;-76
2024/01/27 09:32:28;;;;;;;782.58;720.72;;;3.70;99.90;;;;;;4967331;28;20443;-76
2024/01/27 09:34:54;;;;;;;809.88;745.65;;;4.30;99.90;;;;;;4997718;28;20050;-76
2024/01/27 09:37:20;;;;;;;810.03;746.50;;;4.40;99.90;;;;;;5002998;28;20186;-76
2024/01/27 09:39:45;;;;;;;802.15;739.05;;;3.90;99.90;;;;;;4984992;28;20410;-76
2024/01/27 09:42:14;;;;;;;824.20;757.85;;;3.90;99.90;;;;;;4986188;28;20050;-76
2024/01/27 09:44:44;;;;;;;767.40;709.00;;;4.00;99.90;;;;;;4971853;28;20493;-76
2024/01/27 09:47:11;;;;;;;790.33;727.50;;;4.00;99.90;;;;;;4990046;28;20077;-76
2024/01/27 09:49:39;;;;;;;838.97;762.67;;;4.10;99.90;;;;;;4993026;28;20512;-76
2024/01/27 09:52:05;;;;;;;813.35;747.35;;;4.20;99.90;;;;;;4982433;28;20061;-76
2024/01/27 09:54:31;;;;;;;828.90;761.38;;;4.20;99.90;;;;;;4994039;28;20042;-76
2024/01/27 09:56:57;;;;;;;828.93;762.00;;;4.30;99.90;;;;;;4998069;28;20060;-76
2024/01/27 09:59:25;;;;;;;773.58;712.78;;;4.30;99.90;;;;;;4986738;28;20238;-76
2024/01/27 10:01:52;;;;;;;777.88;712.38;;;4.40;99.90;;;;;;5002499;28;20074;-76
2024/01/27 10:04:20;;;;;;;824.03;747.35;;;4.40;99.90;;;;;;5005604;28;20561;-76
2024/01/27 10:06:48;;;;;;;766.45;697.47;;;4.50;99.90;;;;;;5005031;28;20556;-76
2024/01/27 10:09:14;;;;;;;760.10;696.47;;;4.60;99.90;;;;;;5004901;28;20038;-76
2024/01/27 10:11:46;;;;;;;818.08;746.38;;;4.60;99.90;;;;;;5005910;28;20170;-76
2024/01/27 10:14:12;;;;;;;822.15;746.53;;;4.70;99.90;;;;;;5003684;28;20085;-76
2024/01/27 10:16:43;;;;;;;1163.28;934.35;;;4.80;99.90;;;;;;5005544;28;20130;-76
2024/01/27 10:19:15;;;;;;;770.40;702.67;;;4.90;99.90;;;;;;5003974;28;20456;-76
2024/01/27 10:21:41;;;;;;;943.95;848.03;;;5.00;99.90;;;;;;5005414;28;20056;-76
2024/01/27 10:24:08;;;;;;;936.78;838.75;;;5.10;99.90;;;;;;5004741;28;20038;-76
2024/01/27 10:26:34;;;;;;;895.58;806.67;;;5.10;99.90;;;;;;5005449;28;20046;-76
2024/01/27 10:29:01;;;;;;;841.00;769.15;;;5.20;99.90;;;;;;5002776;28;20077;-76
2024/01/27 10:31:28;;;;;;;972.40;873.22;;;5.30;99.90;;;;;;5005628;28;20085;-76
2024/01/27 10:33:56;;;;;;;856.17;781.88;;;5.40;99.90;;;;;;5035929;28;20421;-76
2024/01/27 10:36:22;;;;;;;860.08;784.45;;;5.50;99.90;;;;;;4987017;28;20037;-76
2024/01/27 10:38:48;;;;;;;912.30;823.45;;;5.60;99.90;;;;;;5002576;28;20052;-76
2024/01/27 10:41:23;;;;;;;726.90;670.92;;;5.60;99.90;;;;;;5005261;28;20401;-76
2024/01/27 10:43:57;;;;;;;759.85;701.25;;;5.60;99.90;;;;;;5002221;28;20061;-76
2024/01/27 10:46:22;;;;;;;758.92;699.60;;;5.70;99.90;;;;;;5002218;28;20050;-76
2024/01/27 10:48:52;;;;;;;750.13;690.47;;;5.80;99.90;;;;;;5002930;28;20374;-76
2024/01/27 10:51:24;;;;;;;690.60;638.17;;;5.90;99.90;;;;;;4982513;28;20508;-77
2024/01/27 10:53:53;;;;;;;706.08;651.63;;;5.90;99.90;;;;;;4994042;28;20106;-76
2024/01/27 10:56:19;;;;;;;723.20;667.63;;;5.90;99.90;;;;;;4992360;28;20250;-77
2024/01/27 10:58:47;;;;;;;715.00;660.67;;;6.00;99.90;;;;;;4986803;28;20134;-76
2024/01/27 11:01:13;;;;;;;678.15;626.15;;;6.00;99.90;;;;;;5000687;28;20052;-77
2024/01/27 11:03:40;;;;;;;739.72;682.38;;;6.10;99.90;;;;;;5005204;28;20038;-77
2024/01/27 11:06:06;;;;;;;709.40;655.42;;;6.20;99.90;;;;;;5004977;28;20054;-77
2024/01/27 11:08:34;;;;;;;651.15;601.67;;;6.20;99.90;;;;;;4987759;28;20125;-77
2024/01/27 11:11:01;;;;;;;709.15;655.15;;;6.20;99.90;;;;;;5005447;28;20049;-77
2024/01/27 11:13:29;;;;;;;669.25;619.25;;;6.30;99.90;;;;;;5002929;28;20046;-77
2024/01/27 11:15:55;;;;;;;675.03;624.33;;;6.30;99.90;;;;;;5003743;28;20219;-77
2024/01/27 11:18:21;;;;;;;672.33;621.20;;;6.30;99.90;;;;;;4989636;28;20126;-77
2024/01/27 11:20:47;;;;;;;656.88;607.28;;;6.40;99.90;;;;;;4988012;28;20473;-77
2024/01/27 11:23:14;;;;;;;786.83;723.85;;;6.50;99.90;;;;;;4987820;28;20053;-76
2024/01/27 11:25:41;;;;;;;978.80;886.58;;;6.50;99.90;;;;;;4992169;28;20447;-76
2024/01/27 11:28:14;;;;;;;835.25;767.58;;;6.60;99.90;;;;;;4988557;28;20038;-76
2024/01/27 11:30:47;;;;;;;768.45;706.97;;;6.60;99.90;;;;;;4989939;28;20046;-76
2024/01/27 11:33:14;;;;;;;978.42;887.70;;;6.70;99.90;;;;;;5019689;28;20130;-76
2024/01/27 11:35:39;;;;;;;806.08;741.33;;;6.70;99.90;;;;;;4989533;28;20054;-76
2024/01/27 11:38:05;;;;;;;1069.57;956.95;;;6.80;99.90;;;;;;4987806;28;20054;-76
2024/01/27 11:40:32;;;;;;;710.55;656.63;;;6.90;99.90;;;;;;4989215;28;20173;-76
2024/01/27 11:42:59;;;;;;;1000.08;900.38;;;6.90;99.90;;;;;;4986681;28;20562;-76
2024/01/27 11:45:25;;;;;;;928.13;846.90;;;7.00;99.90;;;;;;4991351;28;20070;-76
2024/01/27 11:47:51;;;;;;;914.92;834.08;;;7.00;99.90;;;;;;4970058;28;20042;-76
2024/01/27 11:50:18;;;;;;;964.60;872.92;;;7.10;99.90;;;;;;4987030;28;20049;-76
2024/01/27 11:52:44;;;;;;;778.92;718.72;;;7.10;99.90;;;;;;4988639;28;20046;-76
2024/01/27 11:55:10;;;;;;;720.08;664.92;;;7.20;99.90;;;;;;4973466;28;20042;-76
2024/01/27 11:57:36;;;;;;;786.53;724.90;;;7.20;99.90;;;;;;4986805;28;20420;-76
2024/01/27 12:00:01;;;;;;;907.33;829.42;;;7.20;99.90;;;;;;4983808;28;20122;-78
2024/01/27 12:02:27;;;;;;;914.35;835.25;;;7.20;99.90;;;;;;4984645;28;20559;-78
2024/01/27 12:04:54;;;;;;;771.78;711.08;;;7.20;99.90;;;;;;4985030;28;20115;-78
2024/01/27 12:07:19;;;;;;;826.95;760.90;;;7.30;99.90;;;;;;4984694;28;20406;-78
2024/01/27 12:09:45;;;;;;;936.40;853.35;;;7.30;99.90;;;;;;5017685;28;20050;-76
2024/01/27 12:12:14;;;;;;;688.80;637.33;;;7.30;99.90;;;;;;4983912;28;20122;-75